ENEV

Harstad / Narvik , Evenes Airport

Evenes, Norway
TAF ENEV 190800Z 1909/1918 24008KT 9999 -SHRA FEW015TCU BKN030 PROB40 TEMPO 1909/1918 BKN014
Issued Valid From Valid To
Oct-19 @ 08:00 UTC
(an hour ago)
Oct-19 @ 09:00 UTC
(6 minutes ago)
Oct-19 @ 18:00 UTC
(in 9 hours)
Oct-19 @ 09:00 to Oct-19 @ 18:00
TAF ENEV 190800Z 1909/1918 24008KT 9999 -SHRA FEW015TCU BKN030
Wind Visibility Clouds Conditions
240° at 8 knots 10,000+ meters
  • Few at 1,500' AGL
  • Broken at 3,000' AGL
  • Light Rain
Temporary  (Probability 40%) Oct-19 @ 09:00 to Oct-19 @ 18:00
PROB40 TEMPO 1909/1918 BKN014
Clouds
  • Broken at 1,400' AGL
TAF ENEV 190800Z 1909/1918 24008KT 9999 -SHRA FEW015TCU BKN030 PROB40 TEMPO 1909/1918 BKN014
Issued Oct-19 @ 08:00 UTC
(an hour ago)
Valid From Oct-19 @ 09:00 UTC
(6 minutes ago)
Valid To Oct-19 @ 18:00 UTC
(in 9 hours)
Oct-19 @ 09:00 - Oct-19 @ 18:00
Wind Visibility
240° at 8 knots 10,000+ meters
Clouds
  • Few at 1,500' AGL
  • Broken at 3,000' AGL
Conditions
  • Light Rain
Probability 40% Temporary Oct-19 @ 09:00 - Oct-19 @ 18:00
Clouds
  • Broken at 1,400' AGL